Cachoeiro de Itapemirim, Brazil
Current Conditions -  °F | °C
As of 9:30 AM on Tuesday 21 Oct 2014 (Local Time) from SBCP Reporting Station
Light Rain Light Rain  
Wind Chill: 73°   Ceiling: 700
Heat Index: 73°   Visibility: 1.8mi
Dew Point: 72°   Wind: 12mph
Humidity: 94%   Direction: 240°WSW
Pressure: 30.09"   Gusts: NA
Location:  20.85°S, 41.13°W
Report Text: SBCP 211130Z 24010KT 3000 -RA BKN007 OVC090 23/22 Q1019
Loading
Personal Weather Stations






























Interactive Weather Map
Tropical Storm Tracking
New forecast layout! Learn more

10-Day Weather Forecast

Advertisements
Track Severe Weather on mobile